createdAt,value
2023-06-29T00:00:10.183Z,4.90
2023-06-29T00:02:37.987Z,4.90
2023-06-29T00:05:05.042Z,4.00
2023-06-29T00:07:34.273Z,4.60
2023-06-29T00:10:01.567Z,4.40
2023-06-29T00:12:29.109Z,4.30
2023-06-29T00:14:56.469Z,4.90
2023-06-29T00:17:23.721Z,4.10
2023-06-29T00:19:50.869Z,3.20
2023-06-29T00:22:20.062Z,6.00
2023-06-29T00:24:55.993Z,5.30
2023-06-29T00:27:22.979Z,5.80
2023-06-29T00:29:50.129Z,3.40
2023-06-29T00:32:16.935Z,6.60
2023-06-29T00:34:43.736Z,4.90
2023-06-29T00:37:10.632Z,3.10
2023-06-29T00:39:37.154Z,5.20
2023-06-29T00:42:04.013Z,5.50
2023-06-29T00:44:31.042Z,3.60
2023-06-29T00:46:58.082Z,4.10
2023-06-29T00:49:24.967Z,4.20
2023-06-29T00:51:53.855Z,4.50
2023-06-29T00:54:21.600Z,5.30
2023-06-29T00:56:48.480Z,4.10
2023-06-29T00:59:15.388Z,5.10
2023-06-29T01:01:42.983Z,4.20
2023-06-29T01:04:11.258Z,4.80
2023-06-29T01:06:46.068Z,3.60
2023-06-29T01:09:15.061Z,4.20
2023-06-29T01:11:43.073Z,5.00
2023-06-29T01:14:12.849Z,6.60
2023-06-29T01:16:40.092Z,5.00
2023-06-29T01:19:13.094Z,4.60
2023-06-29T01:21:51.652Z,4.40
2023-06-29T01:24:21.514Z,3.30
2023-06-29T01:26:48.778Z,3.70
2023-06-29T01:29:15.910Z,4.30
2023-06-29T01:31:42.969Z,5.50
2023-06-29T01:34:10.056Z,3.50
2023-06-29T01:36:43.494Z,5.40
2023-06-29T01:39:20.287Z,5.20
2023-06-29T01:41:48.544Z,5.00
2023-06-29T01:44:19.819Z,4.00
2023-06-29T01:46:48.046Z,5.60
2023-06-29T01:49:14.942Z,4.90
2023-06-29T01:51:41.852Z,6.10
2023-06-29T01:54:08.718Z,5.80
2023-06-29T01:56:35.967Z,4.70
2023-06-29T01:59:03.615Z,5.20
2023-06-29T02:01:31.550Z,5.10
2023-06-29T02:03:58.533Z,5.90
2023-06-29T02:06:25.350Z,6.40
2023-06-29T02:08:52.365Z,5.30
2023-06-29T02:11:21.039Z,5.60
2023-06-29T02:13:48.348Z,6.00
2023-06-29T02:16:15.571Z,7.00
2023-06-29T02:18:42.497Z,8.70
2023-06-29T02:21:09.195Z,6.80
2023-06-29T02:23:36.337Z,6.80
2023-06-29T02:26:03.180Z,6.60
2023-06-29T02:28:30.342Z,6.60
2023-06-29T02:30:57.378Z,9.80
2023-06-29T02:33:24.142Z,7.50
2023-06-29T02:35:51.390Z,8.40
2023-06-29T02:38:18.270Z,6.40
2023-06-29T02:40:45.768Z,8.00
2023-06-29T02:43:12.964Z,7.30
2023-06-29T02:45:40.092Z,8.10
2023-06-29T02:48:07.247Z,7.10
2023-06-29T02:50:34.563Z,6.70
2023-06-29T02:53:01.380Z,8.00
2023-06-29T02:55:28.097Z,7.20
2023-06-29T02:57:54.828Z,7.40
2023-06-29T03:00:21.665Z,8.60
2023-06-29T03:02:48.494Z,8.80
2023-06-29T03:05:15.290Z,7.80
2023-06-29T03:07:42.072Z,7.90
2023-06-29T03:10:09.633Z,7.90
2023-06-29T03:12:36.504Z,8.10
2023-06-29T03:15:03.795Z,9.30
2023-06-29T03:17:30.650Z,9.70
2023-06-29T03:19:57.715Z,8.50
2023-06-29T03:22:26.383Z,8.80
2023-06-29T03:24:54.072Z,8.50
2023-06-29T03:27:20.969Z,10.00
2023-06-29T03:29:52.491Z,8.40
2023-06-29T03:32:19.389Z,8.40
2023-06-29T03:34:46.162Z,9.10
2023-06-29T03:37:13.250Z,8.90
2023-06-29T03:39:39.881Z,9.10
2023-06-29T03:42:07.166Z,8.60
2023-06-29T03:44:35.252Z,10.20
2023-06-29T03:47:02.366Z,8.70
2023-06-29T03:49:28.970Z,8.90
2023-06-29T03:51:55.660Z,9.50
2023-06-29T03:54:22.568Z,9.20
2023-06-29T03:56:49.564Z,9.30
2023-06-29T03:59:16.397Z,8.90
2023-06-29T04:01:43.472Z,9.70
2023-06-29T04:04:10.382Z,9.00
2023-06-29T04:06:37.216Z,8.80
2023-06-29T04:09:04.201Z,9.60
2023-06-29T04:11:31.043Z,10.40
2023-06-29T04:13:57.979Z,9.70
2023-06-29T04:16:24.752Z,10.10
2023-06-29T04:18:51.739Z,8.40
2023-06-29T04:21:18.481Z,8.60
2023-06-29T04:23:45.329Z,8.90
2023-06-29T04:26:12.248Z,8.70
2023-06-29T04:28:39.553Z,9.00
2023-06-29T04:31:06.694Z,8.40
2023-06-29T04:33:33.618Z,8.20
2023-06-29T04:36:01.011Z,10.60
2023-06-29T04:38:28.883Z,9.10
2023-06-29T04:41:04.184Z,8.80
2023-06-29T04:43:32.250Z,8.10
2023-06-29T04:46:01.709Z,9.40
2023-06-29T04:48:39.015Z,9.10
2023-06-29T04:51:06.651Z,8.00
2023-06-29T04:53:34.634Z,9.80
2023-06-29T04:56:04.883Z,8.60
2023-06-29T04:58:31.943Z,9.80
2023-06-29T05:00:58.592Z,8.20
2023-06-29T05:03:26.467Z,7.90
2023-06-29T05:05:53.674Z,8.00
2023-06-29T05:08:20.498Z,8.00
2023-06-29T05:10:47.402Z,8.80
2023-06-29T05:13:14.181Z,10.00
2023-06-29T05:15:41.459Z,8.70
2023-06-29T05:18:10.744Z,7.70
2023-06-29T05:20:37.284Z,8.80
2023-06-29T05:23:04.164Z,8.20
2023-06-29T05:25:30.937Z,8.50
2023-06-29T05:27:58.221Z,8.40
2023-06-29T05:30:24.889Z,6.70
2023-06-29T05:32:52.872Z,8.90
2023-06-29T05:35:19.975Z,8.50
2023-06-29T05:37:48.629Z,9.30
2023-06-29T05:40:16.485Z,9.30
2023-06-29T05:42:43.350Z,8.30
2023-06-29T05:45:10.536Z,8.30
2023-06-29T05:47:37.561Z,7.60
2023-06-29T05:50:05.953Z,9.70
2023-06-29T05:52:35.062Z,10.70
2023-06-29T05:55:03.066Z,8.70
2023-06-29T05:57:29.957Z,9.20
2023-06-29T05:59:56.905Z,9.40
2023-06-29T06:02:23.640Z,9.50
2023-06-29T06:04:50.915Z,9.20
2023-06-29T06:07:37.896Z,11.30
2023-06-29T06:10:05.280Z,11.80
2023-06-29T06:12:32.404Z,9.80
2023-06-29T06:14:59.117Z,9.60
2023-06-29T06:17:26.308Z,9.50
2023-06-29T06:19:55.975Z,13.20
2023-06-29T06:22:22.751Z,12.50
2023-06-29T06:24:49.660Z,14.00
2023-06-29T06:27:16.539Z,10.10
2023-06-29T06:29:45.184Z,10.10
2023-06-29T06:32:12.723Z,11.20
2023-06-29T06:34:39.692Z,12.10
2023-06-29T06:37:07.972Z,11.00
2023-06-29T06:39:34.953Z,9.00
2023-06-29T06:42:01.745Z,9.00
2023-06-29T06:44:28.430Z,10.40
2023-06-29T06:46:55.639Z,9.00
2023-06-29T06:49:22.544Z,11.80
2023-06-29T06:51:50.321Z,8.30
2023-06-29T06:54:17.533Z,9.70
2023-06-29T06:56:44.935Z,10.20
2023-06-29T06:59:13.430Z,10.90
2023-06-29T07:01:43.085Z,10.50
2023-06-29T07:04:10.270Z,9.50
2023-06-29T07:06:37.331Z,10.30
2023-06-29T07:09:05.113Z,10.50
2023-06-29T07:11:31.770Z,10.00
2023-06-29T07:13:58.763Z,10.70
2023-06-29T07:16:26.412Z,11.00
2023-06-29T07:21:36.755Z,9.90
2023-06-29T07:24:07.811Z,9.50
2023-06-29T07:26:35.204Z,11.60
2023-06-29T07:29:02.072Z,7.60
2023-06-29T07:31:30.887Z,9.90
2023-06-29T07:33:57.937Z,9.60
2023-06-29T07:36:26.347Z,9.70
2023-06-29T07:38:53.427Z,8.00
2023-06-29T07:41:20.612Z,8.50
2023-06-29T07:43:57.541Z,8.10
2023-06-29T07:46:24.618Z,10.90
2023-06-29T07:48:52.601Z,8.10
2023-06-29T07:51:19.943Z,8.90
2023-06-29T07:53:46.803Z,7.70
2023-06-29T07:56:13.828Z,10.40
2023-06-29T07:58:40.757Z,8.10
2023-06-29T08:01:07.529Z,9.70
2023-06-29T08:03:44.072Z,9.00
2023-06-29T08:08:48.378Z,9.90
2023-06-29T08:11:16.353Z,10.50
2023-06-29T08:13:46.353Z,10.70
2023-06-29T08:16:13.813Z,10.50
2023-06-29T08:18:40.813Z,15.10
2023-06-29T08:21:07.679Z,9.20
2023-06-29T08:23:34.628Z,8.50
2023-06-29T08:26:01.262Z,9.50
2023-06-29T08:28:28.176Z,9.60
2023-06-29T08:30:55.220Z,9.50
2023-06-29T08:33:24.940Z,10.00
2023-06-29T08:35:52.834Z,12.40
2023-06-29T08:38:19.623Z,10.50
2023-06-29T08:40:50.337Z,12.20
2023-06-29T08:43:17.389Z,11.90
2023-06-29T08:45:44.589Z,11.40
2023-06-29T08:48:13.871Z,10.70
2023-06-29T08:50:46.794Z,12.20
2023-06-29T08:53:14.853Z,15.10
2023-06-29T08:55:43.199Z,12.80
2023-06-29T08:58:09.983Z,11.20
2023-06-29T09:00:38.763Z,13.70
2023-06-29T09:03:06.463Z,11.00
2023-06-29T09:05:33.991Z,10.40
2023-06-29T09:08:00.696Z,13.00
2023-06-29T09:10:27.496Z,11.90
2023-06-29T09:12:55.377Z,14.30
2023-06-29T09:15:26.429Z,10.50
2023-06-29T09:17:56.743Z,12.60
2023-06-29T09:20:26.263Z,12.70
2023-06-29T09:22:53.442Z,12.00
2023-06-29T09:25:32.878Z,10.50
2023-06-29T09:28:05.474Z,11.00
2023-06-29T09:30:40.209Z,11.00
2023-06-29T09:33:09.419Z,9.40
2023-06-29T09:35:38.450Z,9.80
2023-06-29T09:38:05.085Z,7.40
2023-06-29T09:40:32.064Z,8.70
2023-06-29T09:43:04.004Z,7.40
2023-06-29T09:45:32.282Z,7.70
2023-06-29T09:50:28.776Z,7.00
2023-06-29T09:52:56.570Z,7.30
2023-06-29T09:55:31.227Z,7.50
2023-06-29T09:57:59.166Z,7.90
2023-06-29T10:00:28.732Z,7.50
2023-06-29T10:02:56.193Z,8.20
2023-06-29T10:05:23.083Z,8.50
2023-06-29T10:07:52.158Z,7.60
2023-06-29T10:10:19.405Z,6.40
2023-06-29T10:12:50.491Z,7.00
2023-06-29T10:15:19.753Z,8.30
2023-06-29T10:18:13.113Z,7.50
2023-06-29T10:20:41.876Z,8.60
2023-06-29T10:23:10.313Z,7.00
2023-06-29T10:25:40.567Z,7.30
2023-06-29T10:28:08.506Z,7.30
2023-06-29T10:30:50.210Z,7.00
2023-06-29T10:33:23.845Z,6.90
2023-06-29T10:36:18.359Z,6.90
2023-06-29T10:38:49.270Z,8.00
2023-06-29T10:41:27.847Z,7.10
2023-06-29T10:44:01.542Z,7.40
2023-06-29T10:46:50.924Z,8.10
2023-06-29T10:49:25.878Z,7.90
2023-06-29T10:52:02.019Z,6.50
2023-06-29T10:54:28.927Z,7.40
2023-06-29T10:57:01.076Z,6.70
2023-06-29T10:59:29.317Z,6.10
2023-06-29T11:01:55.995Z,6.20
2023-06-29T11:04:23.554Z,7.70
2023-06-29T11:06:50.471Z,7.70
2023-06-29T11:09:17.813Z,7.00
2023-06-29T11:11:46.354Z,9.70
2023-06-29T11:14:13.273Z,9.40
2023-06-29T11:19:09.417Z,7.90
2023-06-29T11:21:38.154Z,9.60
2023-06-29T11:24:06.889Z,8.30
2023-06-29T11:26:33.884Z,8.40
2023-06-29T11:29:00.982Z,8.70
2023-06-29T11:31:27.954Z,8.50
2023-06-29T11:33:54.952Z,8.80
2023-06-29T11:36:29.280Z,8.50
2023-06-29T11:39:10.920Z,9.10
2023-06-29T11:41:38.578Z,9.40
2023-06-29T11:44:05.933Z,9.10
2023-06-29T11:46:36.835Z,9.50
2023-06-29T11:49:07.977Z,9.10
2023-06-29T11:51:39.374Z,11.60
2023-06-29T11:54:08.598Z,12.30
2023-06-29T11:56:36.894Z,11.40
2023-06-29T11:59:08.425Z,10.00
2023-06-29T12:01:37.419Z,10.80
2023-06-29T12:04:11.104Z,12.00
2023-06-29T12:06:38.156Z,13.30
2023-06-29T12:09:12.724Z,11.40
2023-06-29T12:11:40.861Z,8.90
2023-06-29T12:14:11.045Z,14.00
2023-06-29T12:19:14.978Z,10.50
2023-06-29T12:21:42.238Z,11.00
2023-06-29T12:24:09.415Z,12.50
2023-06-29T12:26:36.295Z,12.30
2023-06-29T12:29:03.106Z,13.60
2023-06-29T12:31:30.281Z,13.00
2023-06-29T12:33:57.894Z,13.40
2023-06-29T12:36:24.727Z,11.90
2023-06-29T12:38:52.238Z,9.90
2023-06-29T12:41:19.780Z,10.70
2023-06-29T12:43:46.472Z,10.90
2023-06-29T12:46:13.059Z,11.40
2023-06-29T12:48:39.667Z,10.10
2023-06-29T12:51:06.874Z,10.40
2023-06-29T12:53:34.078Z,10.60
2023-06-29T12:56:01.648Z,11.30
2023-06-29T12:58:28.375Z,8.70
2023-06-29T13:00:54.904Z,11.80
2023-06-29T13:03:22.370Z,11.40
2023-06-29T13:05:50.937Z,11.90
2023-06-29T13:08:17.753Z,8.40
2023-06-29T13:10:45.656Z,8.60
2023-06-29T13:13:12.508Z,10.10
2023-06-29T13:15:39.243Z,10.00
2023-06-29T13:18:06.054Z,9.70
2023-06-29T13:20:32.668Z,11.20
2023-06-29T13:23:01.345Z,9.80
2023-06-29T13:25:28.256Z,10.90
2023-06-29T13:27:54.846Z,10.90
2023-06-29T13:30:21.660Z,10.70
2023-06-29T13:32:49.108Z,11.40
2023-06-29T13:35:15.838Z,12.10
2023-06-29T13:37:42.649Z,11.90
2023-06-29T13:40:10.360Z,16.20
2023-06-29T13:42:37.018Z,10.00
2023-06-29T13:45:04.109Z,11.30
2023-06-29T13:47:31.065Z,13.50
2023-06-29T13:49:57.868Z,13.10
2023-06-29T13:52:24.416Z,11.00
2023-06-29T13:54:51.218Z,12.90
2023-06-29T13:57:17.848Z,13.80
2023-06-29T13:59:44.799Z,12.30
2023-06-29T14:02:11.641Z,11.70
2023-06-29T14:04:38.596Z,12.30
2023-06-29T14:07:05.843Z,13.20
2023-06-29T14:09:32.683Z,11.30
2023-06-29T14:12:00.708Z,11.20
2023-06-29T14:14:27.473Z,13.90
2023-06-29T14:16:53.994Z,12.50
2023-06-29T14:19:20.869Z,9.60
2023-06-29T14:21:47.712Z,14.20
2023-06-29T14:24:14.581Z,12.00
2023-06-29T14:26:41.538Z,10.40
2023-06-29T14:29:08.371Z,11.40
2023-06-29T14:31:36.432Z,11.00
2023-06-29T14:34:03.549Z,9.90
2023-06-29T14:36:30.553Z,12.80
2023-06-29T14:38:57.157Z,11.00
2023-06-29T14:41:23.892Z,10.50
2023-06-29T14:43:51.376Z,12.20
2023-06-29T14:46:18.431Z,11.40
2023-06-29T14:48:45.245Z,13.20
2023-06-29T14:51:12.065Z,11.30
2023-06-29T14:53:38.673Z,13.30
2023-06-29T14:56:07.611Z,14.40
2023-06-29T14:58:34.441Z,12.50
2023-06-29T15:01:01.237Z,11.80
2023-06-29T15:03:28.334Z,10.90
2023-06-29T15:05:56.724Z,14.70
2023-06-29T15:08:23.844Z,13.30
2023-06-29T15:10:50.525Z,13.90
2023-06-29T15:13:18.132Z,12.30
2023-06-29T15:15:45.823Z,11.50
2023-06-29T15:18:13.176Z,13.10
2023-06-29T15:20:39.825Z,13.20
2023-06-29T15:23:06.655Z,11.80
2023-06-29T15:25:34.003Z,12.70
2023-06-29T15:28:03.013Z,12.70
2023-06-29T15:30:29.750Z,17.00
2023-06-29T15:32:56.640Z,13.00
2023-06-29T15:35:23.903Z,13.00
2023-06-29T15:37:53.085Z,12.80
2023-06-29T15:40:21.230Z,14.70
2023-06-29T15:42:47.976Z,13.10
2023-06-29T15:45:15.044Z,13.10
2023-06-29T15:47:42.132Z,14.70
2023-06-29T15:50:09.187Z,14.20
2023-06-29T15:52:36.003Z,14.70
2023-06-29T15:55:03.111Z,12.80
2023-06-29T15:57:31.642Z,13.50
2023-06-29T16:00:01.628Z,12.20
2023-06-29T16:02:28.295Z,13.10
2023-06-29T16:04:55.340Z,13.50
2023-06-29T16:07:25.361Z,14.80
2023-06-29T16:09:52.287Z,15.80
2023-06-29T16:12:19.371Z,15.10
2023-06-29T16:14:46.310Z,15.10
2023-06-29T16:17:12.975Z,16.70
2023-06-29T16:19:40.160Z,15.80
2023-06-29T16:22:07.978Z,15.80
2023-06-29T16:24:35.280Z,14.80
2023-06-29T16:27:03.543Z,15.50
2023-06-29T16:29:30.991Z,16.60
2023-06-29T16:31:58.285Z,17.10
2023-06-29T16:34:25.536Z,19.60
2023-06-29T16:36:55.416Z,16.00
2023-06-29T16:39:22.794Z,17.40
2023-06-29T16:41:50.033Z,16.70
2023-06-29T16:44:16.969Z,16.50
2023-06-29T16:46:44.100Z,16.10
2023-06-29T16:49:11.169Z,18.10
2023-06-29T16:51:38.052Z,17.50
2023-06-29T16:54:05.021Z,15.80
2023-06-29T16:56:32.186Z,19.10
2023-06-29T16:58:59.151Z,17.60
2023-06-29T17:01:26.329Z,16.90
2023-06-29T17:03:53.354Z,16.30
2023-06-29T17:06:20.492Z,16.70
2023-06-29T17:08:47.885Z,17.40
2023-06-29T17:11:14.820Z,18.10
2023-06-29T17:13:41.773Z,18.80
2023-06-29T17:16:08.429Z,17.50
2023-06-29T17:18:37.776Z,19.20
2023-06-29T17:21:05.007Z,18.10
2023-06-29T17:23:31.992Z,16.90
2023-06-29T17:25:59.124Z,21.30
2023-06-29T17:28:26.130Z,18.00
2023-06-29T17:30:53.366Z,18.20
2023-06-29T17:33:21.594Z,17.40
2023-06-29T17:35:48.985Z,19.90
2023-06-29T17:38:16.235Z,18.90
2023-06-29T17:40:43.211Z,16.80
2023-06-29T17:43:10.226Z,18.00
2023-06-29T17:45:36.892Z,20.10
2023-06-29T17:48:03.778Z,16.60
2023-06-29T17:50:30.613Z,18.20
2023-06-29T17:52:57.621Z,17.20
2023-06-29T17:55:24.550Z,18.30
2023-06-29T17:57:51.847Z,17.20
2023-06-29T18:00:20.120Z,18.20
2023-06-29T18:02:47.078Z,19.70
2023-06-29T18:05:14.102Z,19.70
2023-06-29T18:07:41.099Z,17.20
2023-06-29T18:10:08.632Z,18.80
2023-06-29T18:12:37.162Z,17.00
2023-06-29T18:15:06.006Z,16.90
2023-06-29T18:17:33.759Z,17.70
2023-06-29T18:20:01.136Z,17.60
2023-06-29T18:22:28.151Z,17.60
2023-06-29T18:24:54.919Z,16.80
2023-06-29T18:27:23.281Z,16.00
2023-06-29T18:29:50.307Z,17.10
2023-06-29T18:32:18.832Z,17.00
2023-06-29T18:34:47.920Z,16.40
2023-06-29T18:37:14.908Z,16.40
2023-06-29T18:39:42.856Z,18.20
2023-06-29T18:42:11.298Z,16.40
2023-06-29T18:44:38.391Z,16.10
2023-06-29T18:47:07.467Z,15.70
2023-06-29T18:49:49.627Z,16.50
2023-06-29T18:52:17.189Z,15.90
2023-06-29T18:54:44.878Z,15.30
2023-06-29T18:57:12.063Z,15.60
2023-06-29T18:59:43.329Z,16.60
2023-06-29T19:02:10.976Z,15.80
2023-06-29T19:04:37.844Z,16.20
2023-06-29T19:07:05.183Z,16.50
2023-06-29T19:09:32.811Z,15.70
2023-06-29T19:12:03.528Z,16.80
2023-06-29T19:14:30.184Z,16.40
2023-06-29T19:16:59.786Z,14.50
2023-06-29T19:19:27.055Z,15.90
2023-06-29T19:21:54.020Z,16.60
2023-06-29T19:24:20.970Z,16.30
2023-06-29T19:26:47.980Z,15.40
2023-06-29T19:29:14.845Z,15.20
2023-06-29T19:31:43.723Z,16.70
2023-06-29T19:34:12.030Z,16.40
2023-06-29T19:36:39.608Z,17.90
2023-06-29T19:39:06.324Z,17.10
2023-06-29T19:41:33.499Z,17.00
2023-06-29T19:44:00.965Z,14.80
2023-06-29T19:46:27.895Z,15.70
2023-06-29T19:48:55.007Z,17.00
2023-06-29T19:51:21.981Z,17.50
2023-06-29T19:53:48.772Z,16.90
2023-06-29T19:56:15.584Z,14.70
2023-06-29T19:58:42.323Z,15.10
2023-06-29T20:01:09.135Z,17.00
2023-06-29T20:03:36.296Z,15.70
2023-06-29T20:06:03.892Z,16.40
2023-06-29T20:08:30.586Z,17.70
2023-06-29T20:10:57.351Z,16.30
2023-06-29T20:13:24.255Z,17.10
2023-06-29T20:15:51.161Z,15.50
2023-06-29T20:18:18.382Z,16.10
2023-06-29T20:20:45.478Z,16.90
2023-06-29T20:23:12.344Z,17.00
2023-06-29T20:25:39.411Z,16.10
2023-06-29T20:28:06.346Z,16.10
2023-06-29T20:30:33.126Z,18.70
2023-06-29T20:32:59.758Z,15.20
2023-06-29T20:35:26.226Z,15.90
2023-06-29T20:37:53.202Z,17.30
2023-06-29T20:40:20.059Z,16.60
2023-06-29T20:42:46.643Z,16.80
2023-06-29T20:45:13.539Z,16.80
2023-06-29T20:47:41.015Z,14.90
2023-06-29T20:50:08.053Z,17.20
2023-06-29T20:52:34.624Z,17.10
2023-06-29T20:55:01.222Z,17.30
2023-06-29T20:57:27.830Z,15.90
2023-06-29T20:59:54.284Z,15.00
2023-06-29T21:02:20.972Z,17.90
2023-06-29T21:04:47.598Z,17.60
2023-06-29T21:07:14.278Z,19.10
2023-06-29T21:09:41.004Z,18.80
2023-06-29T21:12:08.105Z,16.00
2023-06-29T21:14:34.849Z,17.70
2023-06-29T21:17:01.466Z,17.20
2023-06-29T21:19:28.398Z,16.60
2023-06-29T21:21:55.234Z,20.70
2023-06-29T21:24:22.070Z,17.40
2023-06-29T21:26:48.926Z,17.60
2023-06-29T21:29:34.050Z,16.50
2023-06-29T21:32:06.850Z,17.40
2023-06-29T21:34:33.743Z,15.30
2023-06-29T21:37:00.837Z,15.30
2023-06-29T21:39:27.559Z,16.70
2023-06-29T21:41:54.290Z,15.80
2023-06-29T21:44:21.308Z,17.10
2023-06-29T21:46:48.118Z,14.30
2023-06-29T21:49:15.228Z,15.10
2023-06-29T21:51:41.832Z,16.70
2023-06-29T21:54:10.618Z,17.00
2023-06-29T21:56:38.961Z,18.70
2023-06-29T21:59:05.686Z,20.40
2023-06-29T22:01:32.174Z,18.70
2023-06-29T22:03:58.977Z,17.40
2023-06-29T22:06:25.563Z,17.80
2023-06-29T22:08:52.829Z,20.10
2023-06-29T22:11:21.163Z,20.90
2023-06-29T22:13:49.253Z,21.80
2023-06-29T22:16:17.814Z,20.00
2023-06-29T22:18:44.585Z,19.60
2023-06-29T22:21:13.570Z,21.40
2023-06-29T22:23:40.660Z,19.70
2023-06-29T22:26:07.348Z,24.90
2023-06-29T22:28:34.152Z,23.00
2023-06-29T22:31:00.801Z,21.90
2023-06-29T22:33:27.532Z,20.90
2023-06-29T22:35:54.956Z,20.70
2023-06-29T22:38:21.684Z,20.20
2023-06-29T22:40:48.538Z,20.60
2023-06-29T22:43:15.165Z,20.30
2023-06-29T22:45:41.928Z,22.50
2023-06-29T22:48:08.717Z,23.00
2023-06-29T22:50:36.239Z,22.60
2023-06-29T22:53:03.080Z,21.90
2023-06-29T22:55:29.969Z,22.40
2023-06-29T22:57:56.731Z,20.80
2023-06-29T23:00:23.476Z,20.30
2023-06-29T23:02:50.585Z,22.20
2023-06-29T23:05:17.303Z,23.20
2023-06-29T23:07:47.726Z,20.80
2023-06-29T23:10:17.779Z,21.60
2023-06-29T23:12:47.688Z,21.00
2023-06-29T23:15:15.657Z,21.50
2023-06-29T23:17:43.057Z,21.50
2023-06-29T23:20:16.404Z,21.10
2023-06-29T23:22:47.574Z,23.00
2023-06-29T23:25:14.695Z,21.90
2023-06-29T23:27:44.732Z,21.00
2023-06-29T23:30:16.639Z,21.70
2023-06-29T23:32:50.749Z,24.30
2023-06-29T23:35:18.128Z,23.50
2023-06-29T23:37:45.038Z,22.20
2023-06-29T23:40:12.443Z,22.10
2023-06-29T23:42:39.270Z,24.20
2023-06-29T23:45:10.632Z,22.60
2023-06-29T23:47:39.432Z,22.30
2023-06-29T23:50:12.052Z,24.60
2023-06-29T23:52:39.740Z,21.90
2023-06-29T23:55:12.847Z,23.40
2023-06-29T23:57:41.323Z,22.70
